createdAt,value
2023-04-20T00:01:24.791Z,5.10
2023-04-20T00:03:52.296Z,5.20
2023-04-20T00:06:21.717Z,5.20
2023-04-20T00:08:48.659Z,5.10
2023-04-20T00:11:15.555Z,5.10
2023-04-20T00:13:42.834Z,5.10
2023-04-20T00:16:09.555Z,5.10
2023-04-20T00:18:36.320Z,5.20
2023-04-20T00:21:03.190Z,5.10
2023-04-20T00:23:29.946Z,5.10
2023-04-20T00:25:56.653Z,5.10
2023-04-20T00:28:23.541Z,5.10
2023-04-20T00:30:50.368Z,5.10
2023-04-20T00:33:17.147Z,5.10
2023-04-20T00:35:43.868Z,5.10
2023-04-20T00:38:10.555Z,5.10
2023-04-20T00:40:37.284Z,5.10
2023-04-20T00:43:14.573Z,5.10
2023-04-20T00:45:41.408Z,5.10
2023-04-20T00:48:08.246Z,5.00
2023-04-20T00:50:35.906Z,5.10
2023-04-20T00:53:03.226Z,5.10
2023-04-20T00:55:30.822Z,5.10
2023-04-20T00:57:58.366Z,5.10
2023-04-20T01:00:26.115Z,5.00
2023-04-20T01:02:52.907Z,5.00
2023-04-20T01:05:20.465Z,5.00
2023-04-20T01:07:47.176Z,5.00
2023-04-20T01:10:13.985Z,4.90
2023-04-20T01:12:40.891Z,4.90
2023-04-20T01:15:08.197Z,4.90
2023-04-20T01:17:39.768Z,4.90
2023-04-20T01:20:09.205Z,4.90
2023-04-20T01:22:50.911Z,4.80
2023-04-20T01:25:18.629Z,4.80
2023-04-20T01:27:45.499Z,4.80
2023-04-20T01:30:12.804Z,4.70
2023-04-20T01:32:40.103Z,4.70
2023-04-20T01:35:08.424Z,4.80
2023-04-20T01:37:35.447Z,4.70
2023-04-20T01:40:03.779Z,4.70
2023-04-20T01:42:30.624Z,4.70
2023-04-20T01:44:57.418Z,4.80
2023-04-20T01:47:24.433Z,4.80
2023-04-20T01:49:51.161Z,4.80
2023-04-20T01:52:17.882Z,4.80
2023-04-20T01:54:44.863Z,4.80
2023-04-20T01:57:11.885Z,4.70
2023-04-20T01:59:38.610Z,4.60
2023-04-20T02:02:05.437Z,4.70
2023-04-20T02:04:32.234Z,4.70
2023-04-20T02:06:58.999Z,4.60
2023-04-20T02:09:25.787Z,4.50
2023-04-20T02:11:52.533Z,4.60
2023-04-20T02:14:19.284Z,4.50
2023-04-20T02:16:46.873Z,4.60
2023-04-20T02:19:13.650Z,4.60
2023-04-20T02:21:41.077Z,4.50
2023-04-20T02:24:07.993Z,4.60
2023-04-20T02:26:34.717Z,4.60
2023-04-20T02:29:01.424Z,4.50
2023-04-20T02:31:28.166Z,4.50
2023-04-20T02:33:55.023Z,4.50
2023-04-20T02:36:21.733Z,4.40
2023-04-20T02:38:48.550Z,4.30
2023-04-20T02:41:15.311Z,4.30
2023-04-20T02:43:42.020Z,4.30
2023-04-20T02:46:08.836Z,4.40
2023-04-20T02:48:35.629Z,4.50
2023-04-20T02:51:02.388Z,4.40
2023-04-20T02:53:29.145Z,4.40
2023-04-20T02:55:55.853Z,4.40
2023-04-20T02:58:22.586Z,4.40
2023-04-20T03:00:49.345Z,4.40
2023-04-20T03:03:16.271Z,4.30
2023-04-20T03:05:43.906Z,4.30
2023-04-20T03:08:10.663Z,4.30
2023-04-20T03:10:37.393Z,4.30
2023-04-20T03:13:04.099Z,4.40
2023-04-20T03:15:30.804Z,4.40
2023-04-20T03:17:57.573Z,4.40
2023-04-20T03:20:24.867Z,4.40
2023-04-20T03:22:51.610Z,4.50
2023-04-20T03:25:18.646Z,4.40
2023-04-20T03:27:47.045Z,4.50
2023-04-20T03:30:14.531Z,4.50
2023-04-20T03:32:42.306Z,4.60
2023-04-20T03:35:09.521Z,4.60
2023-04-20T03:37:37.547Z,4.50
2023-04-20T03:40:06.115Z,4.50
2023-04-20T03:42:32.954Z,4.50
2023-04-20T03:44:59.703Z,4.40
2023-04-20T03:47:26.418Z,4.50
2023-04-20T03:49:53.132Z,4.50
2023-04-20T03:52:19.974Z,4.50
2023-04-20T03:54:46.722Z,4.60
2023-04-20T03:57:13.534Z,4.50
2023-04-20T03:59:40.415Z,4.50
2023-04-20T04:02:07.599Z,4.60
2023-04-20T04:04:34.485Z,4.60
2023-04-20T04:07:01.324Z,4.70
2023-04-20T04:09:28.051Z,4.70
2023-04-20T04:11:54.772Z,4.60
2023-04-20T04:14:21.469Z,4.60
2023-04-20T04:16:48.216Z,4.60
2023-04-20T04:19:15.142Z,4.60
2023-04-20T04:21:41.927Z,4.50
2023-04-20T04:24:09.467Z,4.40
2023-04-20T04:26:36.263Z,4.40
2023-04-20T04:29:04.424Z,4.40
2023-04-20T04:31:32.815Z,4.40
2023-04-20T04:33:59.713Z,4.30
2023-04-20T04:36:27.030Z,4.30
2023-04-20T04:38:53.844Z,4.20
2023-04-20T04:41:21.515Z,4.20
2023-04-20T04:43:48.206Z,4.20
2023-04-20T04:46:14.958Z,4.30
2023-04-20T04:48:42.358Z,4.30
2023-04-20T04:51:09.648Z,4.30
2023-04-20T04:53:36.999Z,4.30
2023-04-20T04:56:04.941Z,4.30
2023-04-20T04:58:32.039Z,4.30
2023-04-20T05:00:58.779Z,4.30
2023-04-20T05:03:25.942Z,4.40
2023-04-20T05:05:52.913Z,4.40
2023-04-20T05:08:21.395Z,4.40
2023-04-20T05:10:48.147Z,4.40
2023-04-20T05:13:14.860Z,4.40
2023-04-20T05:15:43.751Z,4.40
2023-04-20T05:18:11.047Z,4.40
2023-04-20T05:20:38.010Z,4.40
2023-04-20T05:23:04.714Z,4.40
2023-04-20T05:25:32.868Z,4.40
2023-04-20T05:27:59.791Z,4.40
2023-04-20T05:30:26.660Z,4.30
2023-04-20T05:32:53.493Z,4.40
2023-04-20T05:35:21.340Z,4.40
2023-04-20T05:37:48.521Z,4.40
2023-04-20T05:40:15.840Z,4.40
2023-04-20T05:42:42.721Z,4.40
2023-04-20T05:45:10.187Z,4.40
2023-04-20T05:47:36.957Z,4.40
2023-04-20T05:50:04.709Z,4.40
2023-04-20T05:52:31.428Z,4.50
2023-04-20T05:54:59.434Z,4.50
2023-04-20T05:57:26.212Z,4.50
2023-04-20T05:59:55.344Z,4.60
2023-04-20T06:02:22.258Z,4.70
2023-04-20T06:04:49.239Z,4.70
2023-04-20T06:07:16.118Z,4.70
2023-04-20T06:09:42.890Z,4.70
2023-04-20T06:12:09.816Z,4.70
2023-04-20T06:14:36.537Z,4.70
2023-04-20T06:17:03.333Z,4.70
2023-04-20T06:19:30.028Z,4.70
2023-04-20T06:22:00.195Z,4.60
2023-04-20T06:24:27.990Z,4.60
2023-04-20T06:26:54.970Z,4.60
2023-04-20T06:29:21.746Z,4.60
2023-04-20T06:31:48.622Z,4.60
2023-04-20T06:34:16.217Z,4.60
2023-04-20T06:36:43.827Z,4.60
2023-04-20T06:39:13.419Z,4.60
2023-04-20T06:41:40.105Z,4.60
2023-04-20T06:44:06.884Z,4.60
2023-04-20T06:46:33.700Z,4.60
2023-04-20T06:49:00.616Z,4.60
2023-04-20T06:51:29.121Z,4.60
2023-04-20T06:53:56.399Z,4.60
2023-04-20T06:56:23.155Z,4.60
2023-04-20T06:58:50.179Z,4.60
2023-04-20T07:01:16.973Z,4.60
2023-04-20T07:03:43.953Z,4.60
2023-04-20T07:06:11.740Z,4.60
2023-04-20T07:08:39.421Z,4.70
2023-04-20T07:11:06.229Z,4.70
2023-04-20T07:13:33.902Z,4.70
2023-04-20T07:16:00.970Z,4.70
2023-04-20T07:18:27.726Z,4.70
2023-04-20T07:20:54.553Z,4.70
2023-04-20T07:23:21.416Z,4.80
2023-04-20T07:25:48.219Z,4.80
2023-04-20T07:28:14.937Z,4.80
2023-04-20T07:30:41.637Z,4.70
2023-04-20T07:33:09.176Z,4.80
2023-04-20T07:35:36.082Z,4.80
2023-04-20T07:38:02.818Z,4.70
2023-04-20T07:40:29.605Z,4.70
2023-04-20T07:42:56.308Z,4.70
2023-04-20T07:45:24.160Z,4.70
2023-04-20T07:47:52.327Z,4.70
2023-04-20T07:50:19.232Z,4.70
2023-04-20T07:52:45.959Z,4.70
2023-04-20T07:55:14.269Z,4.80
2023-04-20T07:57:42.436Z,4.80
2023-04-20T08:00:10.168Z,4.90
2023-04-20T08:02:37.095Z,4.80
2023-04-20T08:05:04.442Z,4.90
2023-04-20T08:07:31.704Z,4.90
2023-04-20T08:09:58.594Z,4.80
2023-04-20T08:12:25.349Z,4.80
2023-04-20T08:14:52.096Z,4.80
2023-04-20T08:17:18.816Z,4.80
2023-04-20T08:19:46.172Z,4.70
2023-04-20T08:22:13.140Z,4.80
2023-04-20T08:24:39.860Z,4.80
2023-04-20T08:27:09.023Z,4.90
2023-04-20T08:29:36.664Z,4.90
2023-04-20T08:32:04.050Z,4.90
2023-04-20T08:34:30.817Z,5.00
2023-04-20T08:36:57.570Z,5.00
2023-04-20T08:39:24.472Z,5.00
2023-04-20T08:41:55.513Z,5.10
2023-04-20T08:44:22.952Z,5.00
2023-04-20T08:46:50.861Z,5.00
2023-04-20T08:49:19.572Z,5.00
2023-04-20T08:51:47.621Z,5.00
2023-04-20T08:54:14.866Z,5.00
2023-04-20T08:56:43.891Z,5.00
2023-04-20T08:59:10.849Z,5.00
2023-04-20T09:01:41.766Z,5.00
2023-04-20T09:04:26.828Z,5.00
2023-04-20T09:06:55.645Z,5.10
2023-04-20T09:09:24.045Z,5.10
2023-04-20T09:12:21.606Z,5.10
2023-04-20T09:14:49.517Z,5.20
2023-04-20T09:17:17.895Z,5.20
2023-04-20T09:19:45.916Z,5.20
2023-04-20T09:22:12.803Z,5.30
2023-04-20T09:24:41.117Z,5.40
2023-04-20T09:27:18.354Z,5.50
2023-04-20T09:29:56.586Z,5.50
2023-04-20T09:32:24.222Z,5.60
2023-04-20T09:34:51.131Z,5.60
2023-04-20T09:37:18.015Z,5.60
2023-04-20T09:39:45.926Z,5.70
2023-04-20T09:42:14.121Z,5.70
2023-04-20T09:44:41.278Z,5.80
2023-04-20T09:47:08.740Z,5.80
2023-04-20T09:49:35.644Z,5.90
2023-04-20T09:52:04.144Z,5.90
2023-04-20T09:54:31.653Z,6.10
2023-04-20T09:56:59.921Z,6.20
2023-04-20T09:59:27.458Z,6.20
2023-04-20T10:01:54.432Z,6.30
2023-04-20T10:04:21.427Z,6.30
2023-04-20T10:06:57.904Z,6.40
2023-04-20T10:09:26.181Z,6.40
2023-04-20T10:11:55.172Z,6.40
2023-04-20T10:14:24.810Z,6.40
2023-04-20T10:17:06.577Z,6.50
2023-04-20T10:19:41.177Z,6.50
2023-04-20T10:22:10.377Z,6.60
2023-04-20T10:24:40.632Z,6.80
2023-04-20T10:27:19.950Z,6.80
2023-04-20T10:29:46.694Z,6.90
2023-04-20T10:32:28.073Z,7.00
2023-04-20T10:35:03.113Z,7.10
2023-04-20T10:37:30.133Z,7.10
2023-04-20T10:39:56.940Z,7.10
2023-04-20T10:42:26.506Z,7.00
2023-04-20T10:44:54.374Z,7.00
2023-04-20T10:47:29.617Z,6.90
2023-04-20T10:50:15.428Z,7.00
2023-04-20T10:52:43.794Z,7.00
2023-04-20T10:55:28.714Z,7.10
2023-04-20T10:57:55.421Z,7.10
2023-04-20T11:00:27.975Z,7.10
2023-04-20T11:02:58.744Z,7.00
2023-04-20T11:05:27.375Z,7.00
2023-04-20T11:07:55.457Z,7.10
2023-04-20T11:10:43.579Z,7.00
2023-04-20T11:13:25.255Z,7.00
2023-04-20T11:15:52.110Z,6.90
2023-04-20T11:18:19.309Z,6.90
2023-04-20T11:20:53.758Z,6.90
2023-04-20T11:23:25.440Z,7.00
2023-04-20T11:25:52.876Z,7.20
2023-04-20T11:28:19.658Z,7.40
2023-04-20T11:30:46.825Z,7.50
2023-04-20T11:33:14.318Z,7.60
2023-04-20T11:35:43.018Z,7.60
2023-04-20T11:38:10.082Z,7.70
2023-04-20T11:40:36.822Z,7.70
2023-04-20T11:43:04.722Z,7.70
2023-04-20T11:45:36.264Z,7.60
2023-04-20T11:48:04.714Z,7.50
2023-04-20T11:50:31.833Z,7.30
2023-04-20T11:52:58.708Z,7.30
2023-04-20T11:55:25.498Z,7.30
2023-04-20T11:57:52.190Z,7.40
2023-04-20T12:00:19.582Z,7.50
2023-04-20T12:02:46.500Z,7.70
2023-04-20T12:05:14.288Z,7.80
2023-04-20T12:07:41.266Z,8.10
2023-04-20T12:10:08.730Z,8.40
2023-04-20T12:12:35.556Z,8.60
2023-04-20T12:15:02.342Z,8.70
2023-04-20T12:17:29.107Z,8.60
2023-04-20T12:19:57.856Z,8.50
2023-04-20T12:22:24.667Z,8.30
2023-04-20T12:24:51.399Z,8.20
2023-04-20T12:27:18.235Z,8.20
2023-04-20T12:29:44.898Z,8.60
2023-04-20T12:32:11.833Z,8.80
2023-04-20T12:34:38.573Z,9.00
2023-04-20T12:37:05.363Z,9.20
2023-04-20T12:39:32.066Z,9.20
2023-04-20T12:41:58.822Z,9.20
2023-04-20T12:44:25.600Z,9.20
2023-04-20T12:46:52.420Z,9.30
2023-04-20T12:49:19.445Z,9.40
2023-04-20T12:51:46.349Z,9.50
2023-04-20T12:54:13.060Z,9.50
2023-04-20T12:56:39.746Z,9.50
2023-04-20T12:59:06.588Z,9.40
2023-04-20T13:01:33.481Z,9.40
2023-04-20T13:04:00.545Z,9.40
2023-04-20T13:06:27.989Z,9.50
2023-04-20T13:08:54.729Z,9.30
2023-04-20T13:11:22.034Z,9.20
2023-04-20T13:13:48.796Z,9.00
2023-04-20T13:16:15.712Z,8.80
2023-04-20T13:18:42.583Z,8.80
2023-04-20T13:21:09.401Z,8.80
2023-04-20T13:23:38.188Z,8.90
2023-04-20T13:26:06.527Z,9.00
2023-04-20T13:28:33.402Z,9.10
2023-04-20T13:31:00.175Z,9.10
2023-04-20T13:33:26.944Z,9.00
2023-04-20T13:35:53.684Z,8.90
2023-04-20T13:38:20.499Z,8.80
2023-04-20T13:40:48.215Z,8.70
2023-04-20T13:43:15.079Z,8.70
2023-04-20T13:45:42.051Z,8.70
2023-04-20T13:48:09.125Z,8.70
2023-04-20T13:50:35.899Z,8.70
2023-04-20T13:53:03.175Z,8.70
2023-04-20T13:55:30.802Z,8.60
2023-04-20T13:57:57.552Z,8.60
2023-04-20T14:00:26.050Z,8.60
2023-04-20T14:02:53.098Z,8.70
2023-04-20T14:05:20.047Z,8.70
2023-04-20T14:07:46.812Z,8.70
2023-04-20T14:10:13.612Z,8.70
2023-04-20T14:12:40.445Z,8.70
2023-04-20T14:15:07.589Z,8.70
2023-04-20T14:17:34.317Z,8.70
2023-04-20T14:20:01.589Z,8.70
2023-04-20T14:22:34.240Z,8.80
2023-04-20T14:25:01.033Z,8.80
2023-04-20T14:27:27.767Z,8.80
2023-04-20T14:29:54.612Z,8.70
2023-04-20T14:32:21.459Z,8.70
2023-04-20T14:34:48.339Z,8.60
2023-04-20T14:37:15.094Z,8.60
2023-04-20T14:39:41.797Z,8.50
2023-04-20T14:42:08.549Z,8.40
2023-04-20T14:44:35.346Z,8.40
2023-04-20T14:47:02.994Z,8.50
2023-04-20T14:49:30.006Z,8.50
2023-04-20T14:51:56.750Z,8.50
2023-04-20T14:54:23.502Z,8.60
2023-04-20T14:56:50.236Z,8.60
2023-04-20T14:59:17.003Z,8.70
2023-04-20T15:01:58.675Z,8.70
2023-04-20T15:04:29.362Z,8.80
2023-04-20T15:06:56.226Z,8.90
2023-04-20T15:09:22.953Z,8.90
2023-04-20T15:11:49.772Z,8.90
2023-04-20T15:14:16.974Z,9.00
2023-04-20T15:16:43.875Z,9.10
2023-04-20T15:19:10.613Z,9.20
2023-04-20T15:21:37.335Z,9.20
2023-04-20T15:24:04.451Z,9.30
2023-04-20T15:26:31.209Z,9.40
2023-04-20T15:28:57.999Z,9.30
2023-04-20T15:31:24.821Z,9.20
2023-04-20T15:33:51.739Z,9.20
2023-04-20T15:36:19.681Z,9.10
2023-04-20T15:38:46.755Z,9.10
2023-04-20T15:41:13.541Z,9.10
2023-04-20T15:43:40.289Z,9.20
2023-04-20T15:46:07.141Z,9.30
2023-04-20T15:48:34.006Z,9.40
2023-04-20T15:51:00.885Z,9.50
2023-04-20T15:53:27.641Z,9.50
2023-04-20T15:55:54.325Z,9.50
2023-04-20T15:58:21.319Z,9.60
2023-04-20T16:00:48.141Z,9.60
2023-04-20T16:03:15.066Z,9.60
2023-04-20T16:05:41.977Z,9.60
2023-04-20T16:08:08.735Z,9.60
2023-04-20T16:10:35.586Z,9.50
2023-04-20T16:13:03.569Z,9.50
2023-04-20T16:15:31.007Z,9.60
2023-04-20T16:20:26.728Z,9.70
2023-04-20T16:22:53.510Z,9.70
2023-04-20T16:25:23.074Z,9.80
2023-04-20T16:27:51.513Z,9.80
2023-04-20T16:30:18.567Z,9.70
2023-04-20T16:32:45.763Z,9.70
2023-04-20T16:35:12.627Z,9.70
2023-04-20T16:37:39.409Z,9.60
2023-04-20T16:40:08.213Z,9.50
2023-04-20T16:42:35.441Z,9.50
2023-04-20T16:45:02.279Z,9.50
2023-04-20T16:47:29.037Z,9.40
2023-04-20T16:49:55.930Z,9.40
2023-04-20T16:52:22.654Z,9.40
2023-04-20T16:54:49.364Z,9.40
2023-04-20T16:57:16.442Z,9.40
2023-04-20T16:59:45.290Z,9.30
2023-04-20T17:02:12.730Z,9.40
2023-04-20T17:04:39.737Z,9.30
2023-04-20T17:07:06.651Z,9.30
2023-04-20T17:09:33.389Z,9.30
2023-04-20T17:12:01.206Z,9.30
2023-04-20T17:14:27.968Z,9.30
2023-04-20T17:16:56.520Z,9.30
2023-04-20T17:19:23.513Z,9.40
2023-04-20T17:21:50.334Z,9.50
2023-04-20T17:24:17.654Z,9.50
2023-04-20T17:26:46.397Z,9.50
2023-04-20T17:29:13.660Z,9.40
2023-04-20T17:31:40.519Z,9.30
2023-04-20T17:34:07.463Z,9.30
2023-04-20T17:36:34.320Z,9.20
2023-04-20T17:39:01.169Z,9.20
2023-04-20T17:41:28.142Z,9.10
2023-04-20T17:43:54.897Z,9.10
2023-04-20T17:46:22.882Z,9.00
2023-04-20T17:48:49.648Z,9.00
2023-04-20T17:51:16.438Z,8.90
2023-04-20T17:53:43.194Z,8.90
2023-04-20T17:56:10.821Z,8.90
2023-04-20T17:58:37.611Z,8.90
2023-04-20T18:01:04.849Z,8.90
2023-04-20T18:03:31.833Z,8.80
2023-04-20T18:05:58.666Z,8.90
2023-04-20T18:08:25.770Z,8.80
2023-04-20T18:10:52.525Z,8.70
2023-04-20T18:13:19.290Z,8.70
2023-04-20T18:15:46.096Z,8.70
2023-04-20T18:18:12.907Z,8.70
2023-04-20T18:20:40.402Z,8.60
2023-04-20T18:23:07.462Z,8.60
2023-04-20T18:25:34.291Z,8.60
2023-04-20T18:28:01.009Z,8.50
2023-04-20T18:30:27.737Z,8.50
2023-04-20T18:32:54.638Z,8.50
2023-04-20T18:35:21.414Z,8.50
2023-04-20T18:37:48.103Z,8.40
2023-04-20T18:40:16.456Z,8.40
2023-04-20T18:42:43.362Z,8.40
2023-04-20T18:45:12.247Z,8.40
2023-04-20T18:47:39.419Z,8.40
2023-04-20T18:50:07.012Z,8.40
2023-04-20T18:52:34.277Z,8.40
2023-04-20T18:55:01.654Z,8.50
2023-04-20T18:57:29.048Z,8.60
2023-04-20T18:59:56.423Z,8.70
2023-04-20T19:02:23.458Z,8.70
2023-04-20T19:04:51.017Z,8.80
2023-04-20T19:07:18.267Z,8.80
2023-04-20T19:09:45.282Z,8.80
2023-04-20T19:12:12.127Z,8.80
2023-04-20T19:14:38.843Z,8.80
2023-04-20T19:17:07.100Z,8.70
2023-04-20T19:19:34.242Z,8.60
2023-04-20T19:22:01.699Z,8.60
2023-04-20T19:24:28.435Z,8.60
2023-04-20T19:26:55.196Z,8.60
2023-04-20T19:29:21.899Z,8.60
2023-04-20T19:31:48.740Z,8.50
2023-04-20T19:34:16.068Z,8.50
2023-04-20T19:36:42.965Z,8.40
2023-04-20T19:39:10.097Z,8.40
2023-04-20T19:41:38.182Z,8.40
2023-04-20T19:44:06.257Z,8.40
2023-04-20T19:46:33.907Z,8.40
2023-04-20T19:49:01.442Z,8.50
2023-04-20T19:51:28.299Z,8.50
2023-04-20T19:53:56.651Z,8.60
2023-04-20T19:56:23.567Z,8.70
2023-04-20T19:58:50.341Z,8.70
2023-04-20T20:01:17.324Z,8.60
2023-04-20T20:03:44.316Z,8.70
2023-04-20T20:06:11.399Z,8.60
2023-04-20T20:08:38.269Z,8.60
2023-04-20T20:11:05.158Z,8.60
2023-04-20T20:13:32.062Z,8.50
2023-04-20T20:15:59.145Z,8.60
2023-04-20T20:18:26.502Z,8.60
2023-04-20T20:20:53.266Z,8.70
2023-04-20T20:23:20.161Z,8.70
2023-04-20T20:25:47.236Z,8.70
2023-04-20T20:28:14.711Z,8.70
2023-04-20T20:30:45.020Z,8.70
2023-04-20T20:33:12.172Z,8.60
2023-04-20T20:35:39.092Z,8.60
2023-04-20T20:38:06.295Z,8.60
2023-04-20T20:40:34.359Z,8.50
2023-04-20T20:43:01.618Z,8.40
2023-04-20T20:45:28.955Z,8.30
2023-04-20T20:47:56.036Z,8.30
2023-04-20T20:50:23.365Z,8.30
2023-04-20T20:52:50.362Z,8.20
2023-04-20T20:55:17.078Z,8.20
2023-04-20T20:57:43.902Z,8.20
2023-04-20T21:00:11.991Z,8.20
2023-04-20T21:02:38.986Z,8.10
2023-04-20T21:05:06.404Z,8.10
2023-04-20T21:07:33.132Z,8.10
2023-04-20T21:10:00.122Z,8.10
2023-04-20T21:12:27.000Z,8.00
2023-04-20T21:14:53.856Z,8.00
2023-04-20T21:17:20.666Z,8.00
2023-04-20T21:19:47.379Z,8.00
2023-04-20T21:22:14.241Z,7.90
2023-04-20T21:24:41.159Z,8.00
2023-04-20T21:27:08.099Z,8.00
2023-04-20T21:29:34.819Z,8.10
2023-04-20T21:32:01.721Z,8.10
2023-04-20T21:34:28.545Z,8.00
2023-04-20T21:36:55.451Z,8.00
2023-04-20T21:39:22.180Z,7.90
2023-04-20T21:41:48.887Z,7.90
2023-04-20T21:44:15.646Z,7.90
2023-04-20T21:46:42.494Z,7.90
2023-04-20T21:49:09.278Z,7.90
2023-04-20T21:51:35.989Z,7.80
2023-04-20T21:54:02.698Z,7.90
2023-04-20T21:56:29.364Z,7.90
2023-04-20T21:58:56.116Z,7.80
2023-04-20T22:01:22.832Z,7.90
2023-04-20T22:03:49.723Z,7.80
2023-04-20T22:06:42.075Z,7.80
2023-04-20T22:09:08.910Z,7.80
2023-04-20T22:11:36.645Z,7.80
2023-04-20T22:14:04.442Z,7.70
2023-04-20T22:16:33.888Z,7.70
2023-04-20T22:19:01.352Z,7.70
2023-04-20T22:21:28.498Z,7.70
2023-04-20T22:23:55.366Z,7.70
2023-04-20T22:26:22.119Z,7.60
2023-04-20T22:28:48.916Z,7.60
2023-04-20T22:31:16.261Z,7.60
2023-04-20T22:33:43.017Z,7.60
2023-04-20T22:36:09.961Z,7.50
2023-04-20T22:38:37.637Z,7.40
2023-04-20T22:41:04.703Z,7.40
2023-04-20T22:43:31.454Z,7.40
2023-04-20T22:45:58.543Z,7.40
2023-04-20T22:48:25.356Z,7.30
2023-04-20T22:50:52.463Z,7.30
2023-04-20T22:53:19.452Z,7.30
2023-04-20T22:55:46.252Z,7.30
2023-04-20T22:58:12.990Z,7.40
2023-04-20T23:00:39.837Z,7.40
2023-04-20T23:03:06.812Z,7.40
2023-04-20T23:05:33.877Z,7.40
2023-04-20T23:08:00.680Z,7.40
2023-04-20T23:10:29.539Z,7.40
2023-04-20T23:12:56.266Z,7.40
2023-04-20T23:15:23.104Z,7.40
2023-04-20T23:17:50.706Z,7.40
2023-04-20T23:20:17.547Z,7.40
2023-04-20T23:22:44.266Z,7.40
2023-04-20T23:25:11.321Z,7.40
2023-04-20T23:27:38.191Z,7.40
2023-04-20T23:30:06.534Z,7.50
2023-04-20T23:32:33.378Z,7.50
2023-04-20T23:35:00.242Z,7.50
2023-04-20T23:37:27.010Z,7.50
2023-04-20T23:39:53.714Z,7.50
2023-04-20T23:42:20.443Z,7.50
2023-04-20T23:44:47.129Z,7.50
2023-04-20T23:47:15.475Z,7.50
2023-04-20T23:49:42.169Z,7.50
2023-04-20T23:52:08.913Z,7.50
2023-04-20T23:54:35.663Z,7.50
2023-04-20T23:57:03.206Z,7.50
2023-04-20T23:59:29.915Z,7.50
